sensor_id;sensor_type;location;lat;lon;timestamp;temperature;humidity
16517;DHT22;8371;52.272;9.746;2023-09-19T00:01:58;18.10;71.80
16517;DHT22;8371;52.272;9.746;2023-09-19T00:04:24;18.10;71.90
16517;DHT22;8371;52.272;9.746;2023-09-19T00:06:51;18.10;72.00
16517;DHT22;8371;52.272;9.746;2023-09-19T00:09:19;18.10;72.10
16517;DHT22;8371;52.272;9.746;2023-09-19T00:11:45;18.20;72.20
16517;DHT22;8371;52.272;9.746;2023-09-19T00:14:12;18.20;72.30
16517;DHT22;8371;52.272;9.746;2023-09-19T00:16:39;18.20;72.40
16517;DHT22;8371;52.272;9.746;2023-09-19T00:19:06;18.20;72.60
16517;DHT22;8371;52.272;9.746;2023-09-19T00:21:33;18.20;72.60
16517;DHT22;8371;52.272;9.746;2023-09-19T00:23:59;18.20;72.60
16517;DHT22;8371;52.272;9.746;2023-09-19T00:26:25;18.30;72.90
16517;DHT22;8371;52.272;9.746;2023-09-19T00:28:54;18.20;72.90
16517;DHT22;8371;52.272;9.746;2023-09-19T00:31:19;18.30;72.90
16517;DHT22;8371;52.272;9.746;2023-09-19T00:33:45;18.30;72.80
16517;DHT22;8371;52.272;9.746;2023-09-19T00:36:11;18.30;72.90
16517;DHT22;8371;52.272;9.746;2023-09-19T00:38:36;18.30;73.00
16517;DHT22;8371;52.272;9.746;2023-09-19T00:41:02;18.30;73.10
16517;DHT22;8371;52.272;9.746;2023-09-19T00:43:28;18.40;73.00
16517;DHT22;8371;52.272;9.746;2023-09-19T00:45:55;18.40;73.00
16517;DHT22;8371;52.272;9.746;2023-09-19T00:48:22;18.40;73.00
16517;DHT22;8371;52.272;9.746;2023-09-19T00:50:48;18.40;73.00
16517;DHT22;8371;52.272;9.746;2023-09-19T00:53:18;18.40;73.00
16517;DHT22;8371;52.272;9.746;2023-09-19T00:55:45;18.40;72.90
16517;DHT22;8371;52.272;9.746;2023-09-19T00:58:11;18.40;73.00
16517;DHT22;8371;52.272;9.746;2023-09-19T01:00:37;18.40;73.00
16517;DHT22;8371;52.272;9.746;2023-09-19T01:03:04;18.40;73.00
16517;DHT22;8371;52.272;9.746;2023-09-19T01:05:33;18.40;72.90
16517;DHT22;8371;52.272;9.746;2023-09-19T01:07:59;18.40;72.90
16517;DHT22;8371;52.272;9.746;2023-09-19T01:10:25;18.40;72.90
16517;DHT22;8371;52.272;9.746;2023-09-19T01:13:08;18.40;73.00
16517;DHT22;8371;52.272;9.746;2023-09-19T01:15:47;18.40;73.10
16517;DHT22;8371;52.272;9.746;2023-09-19T01:26:28;18.40;73.30
16517;DHT22;8371;52.272;9.746;2023-09-19T01:29:01;18.50;73.50
16517;DHT22;8371;52.272;9.746;2023-09-19T01:31:23;18.50;73.50
16517;DHT22;8371;52.272;9.746;2023-09-19T01:34:01;18.60;73.70
16517;DHT22;8371;52.272;9.746;2023-09-19T01:36:35;18.60;73.50
16517;DHT22;8371;52.272;9.746;2023-09-19T01:39:07;18.60;73.60
16517;DHT22;8371;52.272;9.746;2023-09-19T01:42:01;18.70;73.60
16517;DHT22;8371;52.272;9.746;2023-09-19T01:44:34;18.70;73.50
16517;DHT22;8371;52.272;9.746;2023-09-19T01:47:00;18.80;73.50
16517;DHT22;8371;52.272;9.746;2023-09-19T01:49:41;18.90;73.60
16517;DHT22;8371;52.272;9.746;2023-09-19T01:52:14;18.90;73.50
16517;DHT22;8371;52.272;9.746;2023-09-19T01:54:50;18.90;73.30
16517;DHT22;8371;52.272;9.746;2023-09-19T01:57:28;19.00;73.30
16517;DHT22;8371;52.272;9.746;2023-09-19T02:00:07;19.00;73.30
16517;DHT22;8371;52.272;9.746;2023-09-19T02:02:37;19.00;73.30
16517;DHT22;8371;52.272;9.746;2023-09-19T02:05:04;19.00;73.30
16517;DHT22;8371;52.272;9.746;2023-09-19T02:07:30;19.10;73.40
16517;DHT22;8371;52.272;9.746;2023-09-19T02:10:01;19.10;73.30
16517;DHT22;8371;52.272;9.746;2023-09-19T02:12:28;19.20;73.40
16517;DHT22;8371;52.272;9.746;2023-09-19T02:14:56;19.20;73.20
16517;DHT22;8371;52.272;9.746;2023-09-19T02:17:22;19.20;73.10
16517;DHT22;8371;52.272;9.746;2023-09-19T02:19:50;19.20;73.10
16517;DHT22;8371;52.272;9.746;2023-09-19T02:22:16;19.20;73.00
16517;DHT22;8371;52.272;9.746;2023-09-19T02:24:41;19.30;73.00
16517;DHT22;8371;52.272;9.746;2023-09-19T02:27:07;19.20;72.90
16517;DHT22;8371;52.272;9.746;2023-09-19T02:29:33;19.20;72.70
16517;DHT22;8371;52.272;9.746;2023-09-19T02:32:00;19.20;72.00
16517;DHT22;8371;52.272;9.746;2023-09-19T02:34:28;19.20;72.50
16517;DHT22;8371;52.272;9.746;2023-09-19T02:36:54;19.30;72.30
16517;DHT22;8371;52.272;9.746;2023-09-19T02:39:22;19.20;72.10
16517;DHT22;8371;52.272;9.746;2023-09-19T02:41:49;19.20;72.20
16517;DHT22;8371;52.272;9.746;2023-09-19T02:44:15;19.20;71.90
16517;DHT22;8371;52.272;9.746;2023-09-19T02:46:40;19.20;71.80
16517;DHT22;8371;52.272;9.746;2023-09-19T02:49:07;19.10;71.70
16517;DHT22;8371;52.272;9.746;2023-09-19T02:51:33;19.10;71.60
16517;DHT22;8371;52.272;9.746;2023-09-19T02:54:00;19.10;71.70
16517;DHT22;8371;52.272;9.746;2023-09-19T02:56:26;19.00;71.60
16517;DHT22;8371;52.272;9.746;2023-09-19T02:58:52;19.00;71.60
16517;DHT22;8371;52.272;9.746;2023-09-19T03:01:18;18.90;71.60
16517;DHT22;8371;52.272;9.746;2023-09-19T03:03:44;18.90;71.70
16517;DHT22;8371;52.272;9.746;2023-09-19T03:06:11;18.90;71.60
16517;DHT22;8371;52.272;9.746;2023-09-19T03:08:39;18.80;72.40
16517;DHT22;8371;52.272;9.746;2023-09-19T03:11:05;18.80;71.80
16517;DHT22;8371;52.272;9.746;2023-09-19T03:13:33;18.80;71.80
16517;DHT22;8371;52.272;9.746;2023-09-19T03:15:58;18.80;71.90
16517;DHT22;8371;52.272;9.746;2023-09-19T03:18:24;18.80;71.90
16517;DHT22;8371;52.272;9.746;2023-09-19T03:20:53;18.80;71.80
16517;DHT22;8371;52.272;9.746;2023-09-19T03:23:20;18.70;71.70
16517;DHT22;8371;52.272;9.746;2023-09-19T03:25:46;18.70;71.60
16517;DHT22;8371;52.272;9.746;2023-09-19T03:28:13;18.70;71.40
16517;DHT22;8371;52.272;9.746;2023-09-19T03:30:40;18.70;71.40
16517;DHT22;8371;52.272;9.746;2023-09-19T03:33:06;18.70;71.40
16517;DHT22;8371;52.272;9.746;2023-09-19T03:35:32;18.60;71.20
16517;DHT22;8371;52.272;9.746;2023-09-19T03:37:58;18.60;71.20
16517;DHT22;8371;52.272;9.746;2023-09-19T03:40:23;18.60;71.10
16517;DHT22;8371;52.272;9.746;2023-09-19T03:42:50;18.60;71.10
16517;DHT22;8371;52.272;9.746;2023-09-19T03:45:16;18.60;71.10
16517;DHT22;8371;52.272;9.746;2023-09-19T03:47:43;18.50;71.00
16517;DHT22;8371;52.272;9.746;2023-09-19T03:50:09;18.50;71.10
16517;DHT22;8371;52.272;9.746;2023-09-19T03:52:40;18.40;71.00
16517;DHT22;8371;52.272;9.746;2023-09-19T03:55:06;18.40;71.10
16517;DHT22;8371;52.272;9.746;2023-09-19T03:57:32;18.30;71.00
16517;DHT22;8371;52.272;9.746;2023-09-19T03:59:58;18.30;71.10
16517;DHT22;8371;52.272;9.746;2023-09-19T04:02:24;18.30;72.10
16517;DHT22;8371;52.272;9.746;2023-09-19T04:04:51;18.20;71.40
16517;DHT22;8371;52.272;9.746;2023-09-19T04:07:17;18.20;71.50
16517;DHT22;8371;52.272;9.746;2023-09-19T04:09:44;18.20;71.70
16517;DHT22;8371;52.272;9.746;2023-09-19T04:12:11;18.10;71.80
16517;DHT22;8371;52.272;9.746;2023-09-19T04:14:37;18.10;72.90
16517;DHT22;8371;52.272;9.746;2023-09-19T04:17:04;18.10;72.90
16517;DHT22;8371;52.272;9.746;2023-09-19T04:19:31;18.10;72.30
16517;DHT22;8371;52.272;9.746;2023-09-19T04:21:56;18.10;72.30
16517;DHT22;8371;52.272;9.746;2023-09-19T04:24:22;18.20;72.40
16517;DHT22;8371;52.272;9.746;2023-09-19T04:26:48;18.20;72.40
16517;DHT22;8371;52.272;9.746;2023-09-19T04:29:13;18.10;72.30
16517;DHT22;8371;52.272;9.746;2023-09-19T04:31:40;18.10;72.20
16517;DHT22;8371;52.272;9.746;2023-09-19T04:34:06;18.10;72.20
16517;DHT22;8371;52.272;9.746;2023-09-19T04:36:33;18.10;72.20
16517;DHT22;8371;52.272;9.746;2023-09-19T04:38:59;18.00;72.20
16517;DHT22;8371;52.272;9.746;2023-09-19T04:41:24;18.00;72.30
16517;DHT22;8371;52.272;9.746;2023-09-19T04:43:50;18.00;73.00
16517;DHT22;8371;52.272;9.746;2023-09-19T04:46:17;18.00;72.30
16517;DHT22;8371;52.272;9.746;2023-09-19T04:48:43;18.00;72.20
16517;DHT22;8371;52.272;9.746;2023-09-19T04:51:09;18.00;72.50
16517;DHT22;8371;52.272;9.746;2023-09-19T04:53:36;17.90;72.40
16517;DHT22;8371;52.272;9.746;2023-09-19T04:56:02;17.90;72.30
16517;DHT22;8371;52.272;9.746;2023-09-19T04:58:29;17.90;72.40
16517;DHT22;8371;52.272;9.746;2023-09-19T05:00:55;17.90;72.40
16517;DHT22;8371;52.272;9.746;2023-09-19T05:03:22;17.80;72.30
16517;DHT22;8371;52.272;9.746;2023-09-19T05:05:48;17.90;72.30
16517;DHT22;8371;52.272;9.746;2023-09-19T05:08:14;17.80;72.30
16517;DHT22;8371;52.272;9.746;2023-09-19T05:10:40;17.80;72.30
16517;DHT22;8371;52.272;9.746;2023-09-19T05:13:06;17.80;73.20
16517;DHT22;8371;52.272;9.746;2023-09-19T05:15:35;17.80;72.50
16517;DHT22;8371;52.272;9.746;2023-09-19T05:18:01;17.80;72.50
16517;DHT22;8371;52.272;9.746;2023-09-19T05:20:26;17.80;72.50
16517;DHT22;8371;52.272;9.746;2023-09-19T05:22:59;17.70;72.50
16517;DHT22;8371;52.272;9.746;2023-09-19T05:25:28;17.70;72.60
16517;DHT22;8371;52.272;9.746;2023-09-19T05:27:58;17.70;72.80
16517;DHT22;8371;52.272;9.746;2023-09-19T05:30:27;17.70;72.40
16517;DHT22;8371;52.272;9.746;2023-09-19T05:32:54;17.70;72.30
16517;DHT22;8371;52.272;9.746;2023-09-19T05:35:22;17.70;72.20
16517;DHT22;8371;52.272;9.746;2023-09-19T05:37:50;17.70;72.20
16517;DHT22;8371;52.272;9.746;2023-09-19T05:40:19;17.70;72.20
16517;DHT22;8371;52.272;9.746;2023-09-19T05:42:46;17.70;72.20
16517;DHT22;8371;52.272;9.746;2023-09-19T05:45:12;17.70;72.20
16517;DHT22;8371;52.272;9.746;2023-09-19T05:47:39;17.70;72.30
16517;DHT22;8371;52.272;9.746;2023-09-19T05:50:07;17.60;72.10
16517;DHT22;8371;52.272;9.746;2023-09-19T05:52:36;17.60;72.10
16517;DHT22;8371;52.272;9.746;2023-09-19T05:55:07;17.60;72.10
16517;DHT22;8371;52.272;9.746;2023-09-19T05:57:34;17.60;72.10
16517;DHT22;8371;52.272;9.746;2023-09-19T05:59:59;17.60;72.20
16517;DHT22;8371;52.272;9.746;2023-09-19T06:02:25;17.60;72.20
16517;DHT22;8371;52.272;9.746;2023-09-19T06:04:53;17.60;72.20
16517;DHT22;8371;52.272;9.746;2023-09-19T06:07:24;17.50;71.70
16517;DHT22;8371;52.272;9.746;2023-09-19T06:09:52;17.60;72.40
16517;DHT22;8371;52.272;9.746;2023-09-19T06:12:19;17.60;71.90
16517;DHT22;8371;52.272;9.746;2023-09-19T06:14:45;17.60;72.40
16517;DHT22;8371;52.272;9.746;2023-09-19T06:17:10;17.60;72.20
16517;DHT22;8371;52.272;9.746;2023-09-19T06:19:36;17.60;72.20
16517;DHT22;8371;52.272;9.746;2023-09-19T06:22:02;17.60;72.20
16517;DHT22;8371;52.272;9.746;2023-09-19T06:24:29;17.60;72.30
16517;DHT22;8371;52.272;9.746;2023-09-19T06:26:54;17.70;72.50
16517;DHT22;8371;52.272;9.746;2023-09-19T06:29:20;17.70;72.50
16517;DHT22;8371;52.272;9.746;2023-09-19T06:31:48;17.80;72.50
16517;DHT22;8371;52.272;9.746;2023-09-19T06:34:14;17.80;72.50
16517;DHT22;8371;52.272;9.746;2023-09-19T06:36:41;17.90;72.30
16517;DHT22;8371;52.272;9.746;2023-09-19T06:39:07;17.90;72.20
16517;DHT22;8371;52.272;9.746;2023-09-19T06:41:35;18.00;72.20
16517;DHT22;8371;52.272;9.746;2023-09-19T06:44:01;18.00;72.20
16517;DHT22;8371;52.272;9.746;2023-09-19T06:46:26;18.10;72.20
16517;DHT22;8371;52.272;9.746;2023-09-19T06:48:54;18.10;72.20
16517;DHT22;8371;52.272;9.746;2023-09-19T06:51:20;18.20;72.20
16517;DHT22;8371;52.272;9.746;2023-09-19T06:53:45;18.30;72.10
16517;DHT22;8371;52.272;9.746;2023-09-19T06:56:11;18.30;72.10
16517;DHT22;8371;52.272;9.746;2023-09-19T06:58:37;18.40;72.10
16517;DHT22;8371;52.272;9.746;2023-09-19T07:01:03;18.50;72.00
16517;DHT22;8371;52.272;9.746;2023-09-19T07:03:29;18.60;71.90
16517;DHT22;8371;52.272;9.746;2023-09-19T07:05:55;18.70;71.80
16517;DHT22;8371;52.272;9.746;2023-09-19T07:08:21;18.80;71.60
16517;DHT22;8371;52.272;9.746;2023-09-19T07:10:47;18.80;71.30
16517;DHT22;8371;52.272;9.746;2023-09-19T07:13:17;19.00;71.20
16517;DHT22;8371;52.272;9.746;2023-09-19T07:15:44;19.00;70.60
16517;DHT22;8371;52.272;9.746;2023-09-19T07:18:14;19.10;70.70
16517;DHT22;8371;52.272;9.746;2023-09-19T07:20:42;19.20;70.70
16517;DHT22;8371;52.272;9.746;2023-09-19T07:23:13;19.20;70.50
16517;DHT22;8371;52.272;9.746;2023-09-19T07:25:39;19.30;70.00
16517;DHT22;8371;52.272;9.746;2023-09-19T07:28:05;19.40;70.40
16517;DHT22;8371;52.272;9.746;2023-09-19T07:30:31;19.40;70.10
16517;DHT22;8371;52.272;9.746;2023-09-19T07:32:56;19.50;70.20
16517;DHT22;8371;52.272;9.746;2023-09-19T07:35:22;19.60;70.20
16517;DHT22;8371;52.272;9.746;2023-09-19T07:37:49;19.70;70.00
16517;DHT22;8371;52.272;9.746;2023-09-19T07:40:15;19.80;69.70
16517;DHT22;8371;52.272;9.746;2023-09-19T07:42:41;19.90;69.50
16517;DHT22;8371;52.272;9.746;2023-09-19T07:45:10;19.90;69.20
16517;DHT22;8371;52.272;9.746;2023-09-19T07:47:38;20.00;69.20
16517;DHT22;8371;52.272;9.746;2023-09-19T07:50:05;20.00;68.80
16517;DHT22;8371;52.272;9.746;2023-09-19T07:52:32;20.10;68.70
16517;DHT22;8371;52.272;9.746;2023-09-19T07:54:59;20.20;68.60
16517;DHT22;8371;52.272;9.746;2023-09-19T07:57:26;20.10;68.20
16517;DHT22;8371;52.272;9.746;2023-09-19T07:59:53;20.20;68.00
16517;DHT22;8371;52.272;9.746;2023-09-19T08:02:19;20.20;67.70
16517;DHT22;8371;52.272;9.746;2023-09-19T08:04:45;20.20;67.90
16517;DHT22;8371;52.272;9.746;2023-09-19T08:07:12;20.30;67.80
16517;DHT22;8371;52.272;9.746;2023-09-19T08:09:39;20.30;67.80
16517;DHT22;8371;52.272;9.746;2023-09-19T08:12:08;20.30;67.70
16517;DHT22;8371;52.272;9.746;2023-09-19T08:14:36;20.30;67.80
16517;DHT22;8371;52.272;9.746;2023-09-19T08:17:03;20.30;67.70
16517;DHT22;8371;52.272;9.746;2023-09-19T08:19:31;20.30;67.30
16517;DHT22;8371;52.272;9.746;2023-09-19T08:21:58;20.40;67.30
16517;DHT22;8371;52.272;9.746;2023-09-19T08:24:27;20.40;67.20
16517;DHT22;8371;52.272;9.746;2023-09-19T08:26:57;20.50;67.40
16517;DHT22;8371;52.272;9.746;2023-09-19T08:29:24;20.60;67.20
16517;DHT22;8371;52.272;9.746;2023-09-19T08:31:52;20.60;66.60
16517;DHT22;8371;52.272;9.746;2023-09-19T08:34:18;20.70;66.70
16517;DHT22;8371;52.272;9.746;2023-09-19T08:36:44;20.70;66.70
16517;DHT22;8371;52.272;9.746;2023-09-19T08:39:10;20.80;66.70
16517;DHT22;8371;52.272;9.746;2023-09-19T08:41:37;20.90;66.40
16517;DHT22;8371;52.272;9.746;2023-09-19T08:44:02;21.00;66.40
16517;DHT22;8371;52.272;9.746;2023-09-19T08:46:30;21.00;66.30
16517;DHT22;8371;52.272;9.746;2023-09-19T08:49:03;21.10;66.00
16517;DHT22;8371;52.272;9.746;2023-09-19T08:51:45;21.20;66.00
16517;DHT22;8371;52.272;9.746;2023-09-19T08:54:21;21.30;65.90
16517;DHT22;8371;52.272;9.746;2023-09-19T08:56:48;21.40;65.50
16517;DHT22;8371;52.272;9.746;2023-09-19T08:59:15;21.40;64.90
16517;DHT22;8371;52.272;9.746;2023-09-19T09:01:41;21.50;65.00
16517;DHT22;8371;52.272;9.746;2023-09-19T09:04:09;21.50;65.10
16517;DHT22;8371;52.272;9.746;2023-09-19T09:06:37;21.60;65.10
16517;DHT22;8371;52.272;9.746;2023-09-19T09:09:05;21.60;65.00
16517;DHT22;8371;52.272;9.746;2023-09-19T09:11:33;21.70;64.10
16517;DHT22;8371;52.272;9.746;2023-09-19T09:13:59;21.80;64.60
16517;DHT22;8371;52.272;9.746;2023-09-19T09:16:24;21.90;64.50
16517;DHT22;8371;52.272;9.746;2023-09-19T09:18:51;22.00;64.70
16517;DHT22;8371;52.272;9.746;2023-09-19T09:21:19;22.00;64.40
16517;DHT22;8371;52.272;9.746;2023-09-19T09:23:48;22.10;64.20
16517;DHT22;8371;52.272;9.746;2023-09-19T09:26:15;22.20;64.00
16517;DHT22;8371;52.272;9.746;2023-09-19T09:28:45;22.30;63.80
16517;DHT22;8371;52.272;9.746;2023-09-19T09:31:21;22.40;63.70
16517;DHT22;8371;52.272;9.746;2023-09-19T09:33:52;22.50;63.60
16517;DHT22;8371;52.272;9.746;2023-09-19T09:36:14;22.60;63.60
16517;DHT22;8371;52.272;9.746;2023-09-19T09:38:45;22.70;63.20
16517;DHT22;8371;52.272;9.746;2023-09-19T09:41:11;22.70;62.70
16517;DHT22;8371;52.272;9.746;2023-09-19T09:43:40;22.80;62.30
16517;DHT22;8371;52.272;9.746;2023-09-19T09:46:16;22.90;62.20
16517;DHT22;8371;52.272;9.746;2023-09-19T09:49:03;23.00;62.00
16517;DHT22;8371;52.272;9.746;2023-09-19T09:52:03;23.00;61.70
16517;DHT22;8371;52.272;9.746;2023-09-19T09:54:34;23.30;61.50
16517;DHT22;8371;52.272;9.746;2023-09-19T09:57:10;23.10;60.40
16517;DHT22;8371;52.272;9.746;2023-09-19T09:59:59;23.10;61.00
16517;DHT22;8371;52.272;9.746;2023-09-19T10:02:28;23.20;61.10
16517;DHT22;8371;52.272;9.746;2023-09-19T10:04:56;23.20;61.10
16517;DHT22;8371;52.272;9.746;2023-09-19T10:07:30;23.20;60.60
16517;DHT22;8371;52.272;9.746;2023-09-19T10:10:05;23.30;61.00
16517;DHT22;8371;52.272;9.746;2023-09-19T10:12:51;23.40;61.00
16517;DHT22;8371;52.272;9.746;2023-09-19T10:15:20;23.40;60.70
16517;DHT22;8371;52.272;9.746;2023-09-19T10:17:47;23.50;60.90
16517;DHT22;8371;52.272;9.746;2023-09-19T10:20:15;23.60;60.80
16517;DHT22;8371;52.272;9.746;2023-09-19T10:22:55;23.70;60.90
16517;DHT22;8371;52.272;9.746;2023-09-19T10:25:28;23.80;60.50
16517;DHT22;8371;52.272;9.746;2023-09-19T10:27:54;23.90;60.60
16517;DHT22;8371;52.272;9.746;2023-09-19T10:30:22;24.10;60.30
16517;DHT22;8371;52.272;9.746;2023-09-19T10:32:55;24.20;59.80
16517;DHT22;8371;52.272;9.746;2023-09-19T10:35:19;24.30;59.80
16517;DHT22;8371;52.272;9.746;2023-09-19T10:37:47;24.40;59.20
16517;DHT22;8371;52.272;9.746;2023-09-19T10:40:15;24.40;58.60
16517;DHT22;8371;52.272;9.746;2023-09-19T10:42:42;24.50;58.60
16517;DHT22;8371;52.272;9.746;2023-09-19T10:45:10;24.50;58.70
16517;DHT22;8371;52.272;9.746;2023-09-19T10:47:39;24.60;58.70
16517;DHT22;8371;52.272;9.746;2023-09-19T10:50:06;24.60;58.30
16517;DHT22;8371;52.272;9.746;2023-09-19T10:52:33;24.70;58.20
16517;DHT22;8371;52.272;9.746;2023-09-19T10:55:00;24.70;58.00
16517;DHT22;8371;52.272;9.746;2023-09-19T10:57:27;24.80;57.70
16517;DHT22;8371;52.272;9.746;2023-09-19T11:00:05;24.80;57.30
16517;DHT22;8371;52.272;9.746;2023-09-19T11:05:41;24.90;57.10
16517;DHT22;8371;52.272;9.746;2023-09-19T11:08:08;25.00;56.90
16517;DHT22;8371;52.272;9.746;2023-09-19T11:10:50;25.00;56.70
16517;DHT22;8371;52.272;9.746;2023-09-19T11:13:30;25.00;56.60
16517;DHT22;8371;52.272;9.746;2023-09-19T11:16:04;25.00;56.80
16517;DHT22;8371;52.272;9.746;2023-09-19T11:24:43;25.20;56.70
16517;DHT22;8371;52.272;9.746;2023-09-19T11:26:46;25.20;56.70
16517;DHT22;8371;52.272;9.746;2023-09-19T11:29:27;25.30;56.40
16517;DHT22;8371;52.272;9.746;2023-09-19T11:31:55;25.40;56.10
16517;DHT22;8371;52.272;9.746;2023-09-19T11:34:39;25.40;55.90
16517;DHT22;8371;52.272;9.746;2023-09-19T11:42:44;25.60;55.00
16517;DHT22;8371;52.272;9.746;2023-09-19T11:46:00;25.60;54.90
16517;DHT22;8371;52.272;9.746;2023-09-19T11:47:57;25.60;55.80
16517;DHT22;8371;52.272;9.746;2023-09-19T11:50:24;25.60;55.10
16517;DHT22;8371;52.272;9.746;2023-09-19T11:52:51;25.70;55.20
16517;DHT22;8371;52.272;9.746;2023-09-19T11:55:17;25.70;55.00
16517;DHT22;8371;52.272;9.746;2023-09-19T11:57:45;25.80;54.90
16517;DHT22;8371;52.272;9.746;2023-09-19T12:00:18;25.90;54.80
16517;DHT22;8371;52.272;9.746;2023-09-19T12:02:46;26.00;54.50
16517;DHT22;8371;52.272;9.746;2023-09-19T12:05:12;26.00;54.30
16517;DHT22;8371;52.272;9.746;2023-09-19T12:07:44;26.10;54.20
16517;DHT22;8371;52.272;9.746;2023-09-19T12:10:13;26.10;53.90
16517;DHT22;8371;52.272;9.746;2023-09-19T12:12:49;26.10;53.90
16517;DHT22;8371;52.272;9.746;2023-09-19T12:15:17;26.10;53.80
16517;DHT22;8371;52.272;9.746;2023-09-19T12:17:42;26.10;53.70
16517;DHT22;8371;52.272;9.746;2023-09-19T12:20:09;26.10;53.50
16517;DHT22;8371;52.272;9.746;2023-09-19T12:22:42;26.20;53.20
16517;DHT22;8371;52.272;9.746;2023-09-19T12:25:15;26.10;53.00
16517;DHT22;8371;52.272;9.746;2023-09-19T12:27:48;26.10;53.10
16517;DHT22;8371;52.272;9.746;2023-09-19T12:30:16;26.00;53.00
16517;DHT22;8371;52.272;9.746;2023-09-19T12:32:46;25.90;52.90
16517;DHT22;8371;52.272;9.746;2023-09-19T12:35:27;25.90;52.80
16517;DHT22;8371;52.272;9.746;2023-09-19T12:37:54;25.80;53.00
16517;DHT22;8371;52.272;9.746;2023-09-19T12:40:21;25.80;53.20
16517;DHT22;8371;52.272;9.746;2023-09-19T12:42:48;25.80;53.10
16517;DHT22;8371;52.272;9.746;2023-09-19T12:45:15;25.70;52.70
16517;DHT22;8371;52.272;9.746;2023-09-19T12:48:17;25.70;52.60
16517;DHT22;8371;52.272;9.746;2023-09-19T12:51:04;25.60;52.40
16517;DHT22;8371;52.272;9.746;2023-09-19T12:53:28;25.60;52.40
16517;DHT22;8371;52.272;9.746;2023-09-19T12:55:58;25.50;52.30
16517;DHT22;8371;52.272;9.746;2023-09-19T12:58:24;25.50;52.30
16517;DHT22;8371;52.272;9.746;2023-09-19T13:00:50;25.50;52.50
16517;DHT22;8371;52.272;9.746;2023-09-19T13:05:58;25.40;51.90
16517;DHT22;8371;52.272;9.746;2023-09-19T13:08:32;25.40;52.10
16517;DHT22;8371;52.272;9.746;2023-09-19T13:11:16;25.50;52.30
16517;DHT22;8371;52.272;9.746;2023-09-19T13:13:48;25.50;52.20
16517;DHT22;8371;52.272;9.746;2023-09-19T13:16:16;25.50;52.20
16517;DHT22;8371;52.272;9.746;2023-09-19T13:18:54;25.50;52.10
16517;DHT22;8371;52.272;9.746;2023-09-19T13:21:29;25.60;52.10
16517;DHT22;8371;52.272;9.746;2023-09-19T13:26:43;25.60;52.10
16517;DHT22;8371;52.272;9.746;2023-09-19T13:29:09;25.60;52.00
16517;DHT22;8371;52.272;9.746;2023-09-19T13:31:34;25.70;52.20
16517;DHT22;8371;52.272;9.746;2023-09-19T13:34:01;25.80;52.00
16517;DHT22;8371;52.272;9.746;2023-09-19T13:36:28;25.90;52.10
16517;DHT22;8371;52.272;9.746;2023-09-19T13:38:54;26.00;51.90
16517;DHT22;8371;52.272;9.746;2023-09-19T13:41:21;26.10;51.80
16517;DHT22;8371;52.272;9.746;2023-09-19T13:43:46;26.10;51.60
16517;DHT22;8371;52.272;9.746;2023-09-19T13:46:14;26.20;51.60
16517;DHT22;8371;52.272;9.746;2023-09-19T13:48:41;26.30;51.10
16517;DHT22;8371;52.272;9.746;2023-09-19T13:51:07;26.30;51.00
16517;DHT22;8371;52.272;9.746;2023-09-19T13:53:32;26.40;50.40
16517;DHT22;8371;52.272;9.746;2023-09-19T13:55:59;26.40;50.10
16517;DHT22;8371;52.272;9.746;2023-09-19T13:58:25;26.40;50.30
16517;DHT22;8371;52.272;9.746;2023-09-19T14:00:53;26.40;50.40
16517;DHT22;8371;52.272;9.746;2023-09-19T14:03:21;26.40;50.20
16517;DHT22;8371;52.272;9.746;2023-09-19T14:05:46;26.30;50.30
16517;DHT22;8371;52.272;9.746;2023-09-19T14:08:13;26.30;50.00
16517;DHT22;8371;52.272;9.746;2023-09-19T14:10:39;26.30;50.10
16517;DHT22;8371;52.272;9.746;2023-09-19T14:13:05;26.30;49.70
16517;DHT22;8371;52.272;9.746;2023-09-19T14:15:30;26.40;49.70
16517;DHT22;8371;52.272;9.746;2023-09-19T14:17:58;26.40;49.80
16517;DHT22;8371;52.272;9.746;2023-09-19T14:20:25;26.40;49.90
16517;DHT22;8371;52.272;9.746;2023-09-19T14:22:53;26.40;50.10
16517;DHT22;8371;52.272;9.746;2023-09-19T14:25:19;26.50;50.10
16517;DHT22;8371;52.272;9.746;2023-09-19T14:27:47;26.50;49.80
16517;DHT22;8371;52.272;9.746;2023-09-19T14:30:13;26.50;49.60
16517;DHT22;8371;52.272;9.746;2023-09-19T14:32:39;26.50;49.40
16517;DHT22;8371;52.272;9.746;2023-09-19T14:35:08;26.50;49.30
16517;DHT22;8371;52.272;9.746;2023-09-19T14:37:39;26.50;49.40
16517;DHT22;8371;52.272;9.746;2023-09-19T14:40:05;26.50;48.90
16517;DHT22;8371;52.272;9.746;2023-09-19T14:42:33;26.40;49.60
16517;DHT22;8371;52.272;9.746;2023-09-19T14:45:01;26.50;49.30
16517;DHT22;8371;52.272;9.746;2023-09-19T14:47:26;26.50;49.40
16517;DHT22;8371;52.272;9.746;2023-09-19T14:49:54;26.50;49.60
16517;DHT22;8371;52.272;9.746;2023-09-19T14:52:20;26.60;49.20
16517;DHT22;8371;52.272;9.746;2023-09-19T14:54:46;26.60;49.10
16517;DHT22;8371;52.272;9.746;2023-09-19T14:57:12;26.60;48.80
16517;DHT22;8371;52.272;9.746;2023-09-19T14:59:39;26.60;48.60
16517;DHT22;8371;52.272;9.746;2023-09-19T15:02:05;26.50;48.70
16517;DHT22;8371;52.272;9.746;2023-09-19T15:04:31;26.40;48.60
16517;DHT22;8371;52.272;9.746;2023-09-19T15:06:57;26.30;48.60
16517;DHT22;8371;52.272;9.746;2023-09-19T15:09:24;26.20;48.60
16517;DHT22;8371;52.272;9.746;2023-09-19T15:11:55;26.00;48.70
16517;DHT22;8371;52.272;9.746;2023-09-19T15:14:21;25.90;48.70
16517;DHT22;8371;52.272;9.746;2023-09-19T15:16:48;25.80;48.90
16517;DHT22;8371;52.272;9.746;2023-09-19T15:19:14;25.70;48.90
16517;DHT22;8371;52.272;9.746;2023-09-19T15:21:41;25.60;48.90
16517;DHT22;8371;52.272;9.746;2023-09-19T15:24:07;25.60;49.20
16517;DHT22;8371;52.272;9.746;2023-09-19T15:26:36;25.50;49.20
16517;DHT22;8371;52.272;9.746;2023-09-19T15:29:03;25.50;49.30
16517;DHT22;8371;52.272;9.746;2023-09-19T15:31:29;25.40;49.60
16517;DHT22;8371;52.272;9.746;2023-09-19T15:33:55;25.40;49.50
16517;DHT22;8371;52.272;9.746;2023-09-19T15:36:21;25.40;49.60
16517;DHT22;8371;52.272;9.746;2023-09-19T15:38:59;25.50;49.70
16517;DHT22;8371;52.272;9.746;2023-09-19T15:41:30;25.50;49.80
16517;DHT22;8371;52.272;9.746;2023-09-19T15:43:57;25.60;49.80
16517;DHT22;8371;52.272;9.746;2023-09-19T15:46:24;25.60;49.50
16517;DHT22;8371;52.272;9.746;2023-09-19T15:48:53;25.60;49.30
16517;DHT22;8371;52.272;9.746;2023-09-19T15:51:19;25.60;49.40
16517;DHT22;8371;52.272;9.746;2023-09-19T15:53:49;25.60;49.10
16517;DHT22;8371;52.272;9.746;2023-09-19T15:56:15;25.60;49.10
16517;DHT22;8371;52.272;9.746;2023-09-19T15:58:47;25.60;49.10
16517;DHT22;8371;52.272;9.746;2023-09-19T16:01:14;25.60;49.10
16517;DHT22;8371;52.272;9.746;2023-09-19T16:03:42;25.50;49.00
16517;DHT22;8371;52.272;9.746;2023-09-19T16:06:11;25.50;49.30
16517;DHT22;8371;52.272;9.746;2023-09-19T16:08:40;25.40;48.90
16517;DHT22;8371;52.272;9.746;2023-09-19T16:11:05;25.40;48.80
16517;DHT22;8371;52.272;9.746;2023-09-19T16:13:31;25.30;49.10
16517;DHT22;8371;52.272;9.746;2023-09-19T16:15:57;25.20;49.10
16517;DHT22;8371;52.272;9.746;2023-09-19T16:18:23;25.20;49.20
16517;DHT22;8371;52.272;9.746;2023-09-19T16:20:49;25.10;49.00